createdAt,value
2022-08-20T00:02:39.292Z,12.82
2022-08-20T00:05:07.979Z,12.57
2022-08-20T00:07:34.515Z,13.37
2022-08-20T00:10:11.588Z,11.80
2022-08-20T00:12:44.778Z,9.63
2022-08-20T00:15:13.084Z,11.02
2022-08-20T00:17:42.028Z,12.32
2022-08-20T00:20:12.683Z,11.33
2022-08-20T00:22:39.330Z,8.77
2022-08-20T00:25:07.872Z,16.50
2022-08-20T00:27:42.225Z,10.15
2022-08-20T00:30:11.456Z,13.65
2022-08-20T00:32:55.372Z,11.13
2022-08-20T00:35:24.676Z,12.82
2022-08-20T00:37:55.380Z,9.80
2022-08-20T00:40:29.701Z,11.07
2022-08-20T00:42:59.304Z,11.70
2022-08-20T00:45:28.724Z,8.67
2022-08-20T00:48:00.395Z,12.05
2022-08-20T00:50:37.586Z,12.10
2022-08-20T00:53:07.524Z,11.25
2022-08-20T00:55:35.781Z,14.05
2022-08-20T00:58:09.529Z,11.87
2022-08-20T01:01:06.600Z,11.10
2022-08-20T01:03:42.565Z,14.10
2022-08-20T01:06:13.019Z,11.45
2022-08-20T01:08:41.824Z,14.88
2022-08-20T01:11:22.093Z,13.50
2022-08-20T01:13:48.886Z,11.35
2022-08-20T01:16:28.147Z,12.57
2022-08-20T01:18:57.579Z,12.02
2022-08-20T01:21:32.248Z,14.55
2022-08-20T01:24:15.187Z,14.30
2022-08-20T01:26:46.141Z,15.52
2022-08-20T01:29:37.205Z,11.57
2022-08-20T01:32:04.840Z,14.18
2022-08-20T01:34:31.372Z,12.00
2022-08-20T01:36:58.449Z,10.60
2022-08-20T01:39:33.990Z,14.95
2022-08-20T01:42:08.934Z,11.23
2022-08-20T01:44:40.475Z,13.77
2022-08-20T01:47:27.449Z,14.40
2022-08-20T01:49:59.885Z,12.00
2022-08-20T01:52:41.367Z,12.13
2022-08-20T01:55:09.169Z,12.85
2022-08-20T01:57:37.344Z,10.63
2022-08-20T02:00:14.628Z,10.00
2022-08-20T02:02:50.419Z,8.90
2022-08-20T02:05:18.143Z,9.88
2022-08-20T02:07:44.647Z,10.65
2022-08-20T02:10:13.524Z,10.23
2022-08-20T02:12:41.297Z,9.70
2022-08-20T02:15:10.892Z,9.00
2022-08-20T02:17:37.971Z,10.88
2022-08-20T02:20:12.349Z,8.43
2022-08-20T02:22:50.066Z,10.93
2022-08-20T02:25:21.083Z,12.25
2022-08-20T02:27:51.880Z,10.50
2022-08-20T02:30:27.729Z,7.90
2022-08-20T02:32:56.401Z,10.00
2022-08-20T02:35:24.340Z,9.30
2022-08-20T02:37:51.897Z,10.38
2022-08-20T02:40:27.325Z,10.37
2022-08-20T02:42:58.079Z,9.43
2022-08-20T02:45:30.680Z,9.80
2022-08-20T02:47:58.946Z,9.35
2022-08-20T02:50:27.772Z,9.48
2022-08-20T02:52:54.981Z,9.30
2022-08-20T02:55:25.134Z,8.88
2022-08-20T02:57:59.144Z,8.15
2022-08-20T03:00:27.193Z,8.50
2022-08-20T03:02:53.760Z,9.27
2022-08-20T03:05:20.268Z,6.90
2022-08-20T03:07:49.413Z,8.13
2022-08-20T03:10:16.902Z,9.45
2022-08-20T03:12:43.288Z,7.90
2022-08-20T03:15:17.939Z,8.48
2022-08-20T03:17:45.219Z,9.70
2022-08-20T03:20:12.320Z,8.52
2022-08-20T03:22:39.007Z,10.45
2022-08-20T03:25:07.056Z,9.45
2022-08-20T03:27:36.386Z,10.25
2022-08-20T03:30:05.695Z,10.30
2022-08-20T03:32:32.229Z,8.68
2022-08-20T03:34:58.653Z,9.10
2022-08-20T03:37:25.332Z,10.02
2022-08-20T03:39:52.094Z,12.35
2022-08-20T03:42:18.559Z,8.43
2022-08-20T03:44:44.937Z,8.85
2022-08-20T03:47:11.576Z,7.55
2022-08-20T03:49:37.974Z,7.22
2022-08-20T03:52:06.600Z,10.45
2022-08-20T03:54:33.003Z,7.73
2022-08-20T03:57:01.156Z,8.57
2022-08-20T03:59:27.550Z,8.13
2022-08-20T04:01:54.805Z,9.13
2022-08-20T04:04:22.071Z,8.85
2022-08-20T04:06:48.573Z,10.27
2022-08-20T04:09:15.167Z,7.35
2022-08-20T04:11:45.725Z,10.23
2022-08-20T04:14:17.346Z,7.40
2022-08-20T04:16:48.834Z,9.30
2022-08-20T04:19:15.495Z,9.60
2022-08-20T04:21:41.868Z,7.32
2022-08-20T04:24:08.277Z,9.10
2022-08-20T04:26:49.721Z,7.45
2022-08-20T04:29:16.104Z,7.30
2022-08-20T04:31:42.488Z,5.80
2022-08-20T04:34:08.916Z,8.75
2022-08-20T04:36:35.532Z,10.00
2022-08-20T04:39:01.991Z,7.35
2022-08-20T04:41:28.407Z,9.05
2022-08-20T04:43:56.652Z,8.40
2022-08-20T04:46:25.978Z,8.18
2022-08-20T04:48:53.472Z,8.05
2022-08-20T04:51:23.111Z,9.32
2022-08-20T04:53:51.957Z,8.77
2022-08-20T04:56:23.351Z,6.43
2022-08-20T04:58:51.239Z,5.75
2022-08-20T05:01:17.772Z,8.63
2022-08-20T05:03:45.948Z,9.07
2022-08-20T05:06:13.619Z,7.65
2022-08-20T05:08:44.961Z,7.03
2022-08-20T05:11:33.033Z,9.88
2022-08-20T05:14:03.627Z,7.63
2022-08-20T05:16:37.906Z,6.78
2022-08-20T05:19:09.619Z,7.85
2022-08-20T05:21:36.733Z,7.47
2022-08-20T05:24:03.403Z,7.60
2022-08-20T05:26:29.787Z,6.93
2022-08-20T05:28:58.450Z,7.22
2022-08-20T05:31:32.560Z,6.43
2022-08-20T05:34:09.707Z,6.00
2022-08-20T05:36:41.198Z,7.68
2022-08-20T05:39:08.992Z,6.13
2022-08-20T05:41:36.342Z,7.30
2022-08-20T05:44:02.980Z,6.90
2022-08-20T05:46:31.466Z,8.87
2022-08-20T05:48:59.660Z,6.93
2022-08-20T05:51:27.348Z,7.05
2022-08-20T05:53:53.745Z,6.70
2022-08-20T05:56:20.157Z,5.40
2022-08-20T05:58:53.103Z,8.27
2022-08-20T06:01:19.577Z,7.22
2022-08-20T06:04:04.884Z,8.18
2022-08-20T06:06:44.538Z,9.18
2022-08-20T06:09:13.650Z,6.45
2022-08-20T06:11:40.092Z,6.07
2022-08-20T06:14:06.525Z,9.57
2022-08-20T06:16:33.291Z,7.72
2022-08-20T06:18:59.844Z,8.88
2022-08-20T06:21:29.523Z,8.63
2022-08-20T06:23:58.712Z,6.60
2022-08-20T06:26:30.543Z,7.85
2022-08-20T06:28:59.100Z,7.05
2022-08-20T06:31:25.964Z,6.63
2022-08-20T06:33:52.353Z,10.77
2022-08-20T06:36:19.325Z,9.03
2022-08-20T06:38:46.595Z,7.57
2022-08-20T06:41:13.982Z,7.63
2022-08-20T06:43:40.395Z,7.88
2022-08-20T06:46:07.012Z,6.25
2022-08-20T06:48:34.266Z,8.23
2022-08-20T06:51:01.429Z,7.03
2022-08-20T06:53:28.878Z,6.63
2022-08-20T06:55:58.745Z,6.85
2022-08-20T06:58:36.673Z,6.28
2022-08-20T07:01:09.245Z,6.60
2022-08-20T07:03:54.562Z,5.40
2022-08-20T07:06:22.020Z,6.88
2022-08-20T07:08:48.434Z,8.85
2022-08-20T07:11:14.922Z,3.67
2022-08-20T07:13:41.957Z,8.43
2022-08-20T07:16:09.479Z,7.68
2022-08-20T07:18:36.417Z,8.15
2022-08-20T07:21:03.404Z,4.72
2022-08-20T07:23:31.362Z,8.25
2022-08-20T07:25:57.816Z,5.70
2022-08-20T07:28:26.225Z,10.48
2022-08-20T07:31:13.397Z,5.88
2022-08-20T07:33:44.366Z,9.00
2022-08-20T07:36:12.227Z,6.60
2022-08-20T07:38:38.766Z,6.17
2022-08-20T07:41:16.804Z,8.40
2022-08-20T07:43:45.673Z,9.02
2022-08-20T07:46:14.662Z,4.93
2022-08-20T07:48:50.380Z,4.65
2022-08-20T07:51:19.965Z,8.13
2022-08-20T07:53:47.961Z,5.60
2022-08-20T07:56:19.223Z,3.17
2022-08-20T07:58:50.100Z,6.45
2022-08-20T08:01:22.701Z,10.77
2022-08-20T08:04:00.693Z,6.43
2022-08-20T08:06:31.255Z,4.45
2022-08-20T08:09:17.197Z,6.07
2022-08-20T08:11:57.535Z,5.85
2022-08-20T08:14:29.418Z,8.23
2022-08-20T08:17:04.675Z,4.23
2022-08-20T08:19:38.695Z,5.82
2022-08-20T08:22:08.021Z,5.85
2022-08-20T08:24:35.563Z,5.15
2022-08-20T08:27:02.140Z,5.13
2022-08-20T08:29:29.420Z,4.50
2022-08-20T08:32:10.375Z,4.55
2022-08-20T08:35:04.450Z,6.20
2022-08-20T08:37:39.070Z,6.00
2022-08-20T08:40:25.124Z,4.93
2022-08-20T08:43:01.011Z,4.37
2022-08-20T08:45:32.413Z,5.40
2022-08-20T08:47:59.247Z,5.57
2022-08-20T08:50:53.356Z,4.30
2022-08-20T08:53:40.549Z,4.00
2022-08-20T08:56:07.575Z,12.17
2022-08-20T08:58:42.042Z,5.07
2022-08-20T09:01:53.107Z,8.48
2022-08-20T09:04:10.806Z,8.27
2022-08-20T09:06:40.454Z,7.97
2022-08-20T09:09:17.495Z,8.13
2022-08-20T09:11:50.554Z,3.85
2022-08-20T09:14:36.817Z,4.32
2022-08-20T09:17:04.161Z,5.13
2022-08-20T09:19:31.108Z,4.03
2022-08-20T09:21:57.750Z,6.63
2022-08-20T09:24:30.092Z,4.85
2022-08-20T09:27:00.666Z,3.67
2022-08-20T09:29:29.488Z,4.72
2022-08-20T09:32:07.829Z,8.35
2022-08-20T09:34:41.469Z,4.10
2022-08-20T09:37:09.125Z,4.82
2022-08-20T09:39:50.321Z,4.35
2022-08-20T09:42:29.712Z,6.55
2022-08-20T09:44:57.049Z,5.18
2022-08-20T09:47:23.974Z,3.30
2022-08-20T09:49:58.594Z,5.07
2022-08-20T09:52:30.912Z,5.10
2022-08-20T09:55:02.270Z,6.85
2022-08-20T09:57:31.066Z,5.65
2022-08-20T10:00:19.942Z,4.30
2022-08-20T10:02:52.718Z,6.03
2022-08-20T10:05:19.424Z,6.03
2022-08-20T10:07:56.356Z,4.10
2022-08-20T10:10:23.104Z,4.30
2022-08-20T10:12:55.171Z,5.80
2022-08-20T10:15:37.201Z,4.30
2022-08-20T10:18:05.866Z,4.78
2022-08-20T10:20:40.490Z,5.63
2022-08-20T10:23:07.666Z,3.55
2022-08-20T10:25:59.885Z,7.20
2022-08-20T10:28:26.473Z,3.38
2022-08-20T10:31:16.878Z,6.22
2022-08-20T10:33:43.361Z,5.60
2022-08-20T10:36:16.641Z,6.32
2022-08-20T10:38:46.450Z,4.67
2022-08-20T10:41:16.989Z,5.90
2022-08-20T10:43:43.401Z,5.78
2022-08-20T10:46:11.904Z,3.67
2022-08-20T10:48:45.011Z,4.63
2022-08-20T10:51:19.554Z,3.33
2022-08-20T10:53:57.317Z,4.78
2022-08-20T10:56:38.366Z,7.55
2022-08-20T10:59:08.541Z,6.28
2022-08-20T11:01:42.238Z,6.20
2022-08-20T11:04:08.762Z,5.03
2022-08-20T11:06:35.543Z,5.70
2022-08-20T11:09:02.026Z,6.72
2022-08-20T11:11:46.076Z,4.35
2022-08-20T11:14:31.868Z,3.72
2022-08-20T11:17:19.877Z,6.63
2022-08-20T11:19:57.514Z,4.53
2022-08-20T11:22:24.344Z,6.07
2022-08-20T11:25:49.943Z,3.63
2022-08-20T11:29:10.023Z,3.67
2022-08-20T11:32:28.004Z,4.53
2022-08-20T11:34:54.450Z,7.07
2022-08-20T11:37:24.147Z,4.93
2022-08-20T11:40:02.082Z,3.85
2022-08-20T11:42:28.702Z,8.15
2022-08-20T11:44:55.198Z,8.00
2022-08-20T11:47:37.314Z,5.15
2022-08-20T11:50:10.259Z,6.55
2022-08-20T11:52:37.158Z,7.78
2022-08-20T11:55:11.098Z,5.28
2022-08-20T11:57:59.909Z,4.97
2022-08-20T12:00:32.719Z,3.20
2022-08-20T12:03:27.301Z,4.95
2022-08-20T12:05:53.854Z,6.90
2022-08-20T12:08:26.931Z,6.40
2022-08-20T12:10:55.584Z,6.77
2022-08-20T12:13:31.001Z,5.95
2022-08-20T12:16:18.666Z,8.60
2022-08-20T12:18:46.249Z,5.13
2022-08-20T12:21:29.652Z,4.45
2022-08-20T12:24:11.712Z,5.83
2022-08-20T12:26:38.356Z,4.53
2022-08-20T12:29:04.788Z,9.43
2022-08-20T12:31:31.300Z,4.75
2022-08-20T12:34:11.139Z,4.80
2022-08-20T12:36:37.630Z,10.40
2022-08-20T12:39:04.086Z,3.47
2022-08-20T12:42:37.850Z,5.07
2022-08-20T12:45:06.627Z,4.45
2022-08-20T12:47:35.970Z,4.50
2022-08-20T12:50:16.196Z,8.07
2022-08-20T12:52:43.033Z,6.32
2022-08-20T12:55:12.019Z,3.65
2022-08-20T12:57:43.364Z,6.40
2022-08-20T13:00:30.125Z,5.05
2022-08-20T13:02:59.440Z,2.93
2022-08-20T13:05:26.927Z,6.05
2022-08-20T13:08:00.837Z,4.10
2022-08-20T13:10:35.339Z,5.22
2022-08-20T13:13:06.779Z,3.40
2022-08-20T13:15:33.328Z,4.07
2022-08-20T13:18:02.478Z,3.70
2022-08-20T13:20:34.035Z,6.03
2022-08-20T13:23:00.885Z,4.50
2022-08-20T13:25:28.419Z,8.57
2022-08-20T13:27:59.247Z,6.67
2022-08-20T13:30:26.408Z,3.97
2022-08-20T13:32:55.203Z,7.38
2022-08-20T13:35:22.372Z,5.43
2022-08-20T13:37:49.914Z,4.03
2022-08-20T13:40:23.789Z,5.67
2022-08-20T13:43:11.872Z,5.90
2022-08-20T13:45:42.642Z,5.72
2022-08-20T13:48:14.488Z,5.20
2022-08-20T13:50:41.957Z,8.95
2022-08-20T13:53:18.528Z,5.07
2022-08-20T13:55:46.561Z,4.97
2022-08-20T13:58:19.337Z,6.63
2022-08-20T14:00:46.814Z,5.22
2022-08-20T14:03:25.611Z,5.35
2022-08-20T14:05:57.354Z,5.00
2022-08-20T14:08:54.960Z,5.18
2022-08-20T14:11:22.660Z,5.32
2022-08-20T14:13:49.133Z,3.78
2022-08-20T14:16:27.245Z,7.00
2022-08-20T14:18:56.344Z,6.73
2022-08-20T14:21:31.288Z,5.30
2022-08-20T14:23:58.272Z,4.35
2022-08-20T14:26:32.811Z,5.22
2022-08-20T14:29:19.636Z,4.88
2022-08-20T14:31:47.148Z,6.43
2022-08-20T14:34:15.596Z,4.72
2022-08-20T14:37:13.494Z,4.93
2022-08-20T14:39:40.751Z,5.07
2022-08-20T14:42:07.436Z,5.43
2022-08-20T14:44:34.119Z,6.33
2022-08-20T14:47:43.697Z,4.88
2022-08-20T14:50:16.351Z,3.45
2022-08-20T14:52:43.505Z,4.10
2022-08-20T14:55:20.033Z,3.53
2022-08-20T14:57:47.206Z,6.97
2022-08-20T15:00:18.153Z,5.25
2022-08-20T15:02:49.912Z,7.78
2022-08-20T15:05:24.435Z,6.70
2022-08-20T15:07:51.895Z,4.32
2022-08-20T15:10:25.117Z,7.93
2022-08-20T15:13:24.995Z,5.75
2022-08-20T15:15:51.507Z,8.25
2022-08-20T15:18:25.072Z,4.03
2022-08-20T15:21:11.749Z,6.90
2022-08-20T15:23:38.173Z,3.50
2022-08-20T15:26:06.824Z,7.53
2022-08-20T15:28:33.256Z,6.68
2022-08-20T15:30:59.643Z,7.70
2022-08-20T15:33:42.349Z,5.25
2022-08-20T15:36:10.843Z,6.33
2022-08-20T15:38:43.428Z,7.00
2022-08-20T15:41:13.932Z,4.70
2022-08-20T15:43:41.624Z,6.03
2022-08-20T15:46:08.067Z,3.83
2022-08-20T15:48:44.893Z,5.17
2022-08-20T15:51:56.905Z,6.55
2022-08-20T15:54:35.743Z,5.70
2022-08-20T15:57:27.027Z,3.88
2022-08-20T16:00:15.030Z,3.63
2022-08-20T16:03:20.173Z,6.43
2022-08-20T16:06:42.789Z,8.05
2022-08-20T16:09:09.137Z,2.78
2022-08-20T16:11:52.160Z,6.68
2022-08-20T16:14:59.421Z,7.68
2022-08-20T16:18:09.395Z,4.03
2022-08-20T16:20:41.040Z,8.68
2022-08-20T16:23:08.622Z,4.78
2022-08-20T16:25:53.682Z,4.97
2022-08-20T16:28:28.120Z,4.07
2022-08-20T16:31:08.574Z,3.50
2022-08-20T16:33:58.420Z,7.13
2022-08-20T16:36:46.387Z,4.55
2022-08-20T16:39:49.742Z,5.40
2022-08-20T16:42:45.619Z,5.50
2022-08-20T16:45:20.022Z,4.40
2022-08-20T16:47:59.713Z,3.42
2022-08-20T16:50:35.569Z,7.15
2022-08-20T16:53:19.657Z,3.75
2022-08-20T16:55:46.617Z,3.83
2022-08-20T16:58:18.700Z,4.40
2022-08-20T17:00:47.151Z,4.80
2022-08-20T17:03:33.355Z,5.38
2022-08-20T17:06:26.788Z,6.60
2022-08-20T17:09:14.587Z,5.75
2022-08-20T17:11:47.415Z,6.70
2022-08-20T17:14:19.277Z,6.40
2022-08-20T17:16:49.035Z,5.90
2022-08-20T17:19:18.596Z,3.17
2022-08-20T17:21:50.336Z,4.55
2022-08-20T17:24:26.662Z,5.47
2022-08-20T17:27:33.276Z,5.07
2022-08-20T17:30:06.483Z,5.18
2022-08-20T17:33:02.047Z,4.65
2022-08-20T17:35:38.063Z,4.05
2022-08-20T17:38:32.383Z,7.17
2022-08-20T17:41:08.266Z,6.57
2022-08-20T17:43:35.114Z,4.38
2022-08-20T17:46:27.862Z,5.93
2022-08-20T17:48:56.642Z,3.35
2022-08-20T17:51:33.525Z,4.33
2022-08-20T17:54:13.120Z,7.15
2022-08-20T17:56:42.622Z,4.95
2022-08-20T17:59:21.177Z,3.50
2022-08-20T18:02:16.251Z,5.03
2022-08-20T18:04:50.573Z,6.07
2022-08-20T18:07:25.456Z,4.03
2022-08-20T18:10:18.952Z,6.03
2022-08-20T18:12:54.602Z,4.45
2022-08-20T18:15:29.396Z,4.75
2022-08-20T18:18:56.886Z,4.20
2022-08-20T18:22:09.186Z,6.28
2022-08-20T18:25:27.059Z,3.17
2022-08-20T18:28:22.140Z,3.72
2022-08-20T18:31:10.245Z,4.70
2022-08-20T18:33:42.056Z,3.67
2022-08-20T18:36:31.873Z,5.18
2022-08-20T18:39:24.481Z,4.32
2022-08-20T18:42:22.683Z,4.40
2022-08-20T18:44:52.235Z,4.47
2022-08-20T18:47:26.091Z,5.73
2022-08-20T18:50:16.671Z,4.22
2022-08-20T18:53:15.050Z,2.22
2022-08-20T18:55:44.758Z,3.25
2022-08-20T18:58:32.678Z,5.63
2022-08-20T19:01:13.630Z,6.53
2022-08-20T19:03:56.076Z,4.22
2022-08-20T19:06:41.083Z,4.80
2022-08-20T19:10:01.984Z,5.10
2022-08-20T19:16:39.121Z,6.80
2022-08-20T19:19:15.567Z,4.10
2022-08-20T19:21:55.711Z,4.03
2022-08-20T19:24:56.720Z,6.95
2022-08-20T19:27:28.777Z,4.05
2022-08-20T19:30:13.268Z,5.57
2022-08-20T19:32:51.756Z,5.82
2022-08-20T19:35:18.602Z,8.32
2022-08-20T19:38:01.272Z,8.73
2022-08-20T19:40:35.921Z,7.28
2022-08-20T19:43:12.017Z,5.87
2022-08-20T19:45:54.273Z,5.15
2022-08-20T19:49:07.704Z,4.35
2022-08-20T19:51:53.927Z,7.10
2022-08-20T19:54:23.402Z,7.55
2022-08-20T19:56:52.284Z,6.47
2022-08-20T19:59:32.422Z,5.18
2022-08-20T20:02:02.867Z,5.57
2022-08-20T20:04:37.563Z,7.07
2022-08-20T20:07:15.132Z,7.38
2022-08-20T20:09:52.975Z,4.13
2022-08-20T20:12:22.675Z,5.10
2022-08-20T20:14:54.082Z,5.80
2022-08-20T20:17:25.952Z,5.40
2022-08-20T20:20:18.197Z,6.13
2022-08-20T20:23:18.127Z,6.67
2022-08-20T20:25:49.637Z,6.32
2022-08-20T20:28:31.748Z,7.00
2022-08-20T20:31:09.019Z,6.47
2022-08-20T20:33:43.825Z,5.70
2022-08-20T20:36:18.247Z,8.20
2022-08-20T20:39:08.468Z,5.45
2022-08-20T20:41:53.009Z,6.55
2022-08-20T20:44:47.629Z,6.35
2022-08-20T20:47:26.624Z,5.88
2022-08-20T20:50:07.188Z,5.30
2022-08-20T20:52:54.599Z,8.38
2022-08-20T20:56:00.265Z,5.47
2022-08-20T20:58:28.830Z,5.07
2022-08-20T21:00:55.481Z,3.65
2022-08-20T21:03:38.887Z,3.87
2022-08-20T21:06:13.776Z,5.40
2022-08-20T21:08:41.140Z,4.28
2022-08-20T21:11:07.567Z,4.63
2022-08-20T21:13:39.429Z,6.43
2022-08-20T21:16:11.228Z,4.67
2022-08-20T21:18:37.951Z,5.13
2022-08-20T21:21:15.730Z,5.28
2022-08-20T21:23:42.163Z,4.57
2022-08-20T21:27:12.527Z,3.67
2022-08-20T21:33:58.831Z,2.78
2022-08-20T21:36:38.721Z,6.95
2022-08-20T21:39:22.617Z,4.95
2022-08-20T21:41:49.044Z,8.13
2022-08-20T21:44:24.860Z,4.37
2022-08-20T21:46:55.984Z,4.93
2022-08-20T21:49:23.620Z,5.13
2022-08-20T21:51:51.368Z,4.35
2022-08-20T21:54:19.728Z,7.00
2022-08-20T21:56:50.672Z,5.20
2022-08-20T21:59:19.891Z,5.00
2022-08-20T22:01:47.754Z,3.90
2022-08-20T22:04:31.245Z,7.93
2022-08-20T22:07:06.987Z,4.05
2022-08-20T22:09:35.017Z,5.73
2022-08-20T22:12:14.573Z,3.72
2022-08-20T22:15:01.347Z,4.18
2022-08-20T22:17:27.992Z,5.50
2022-08-20T22:19:54.540Z,4.75
2022-08-20T22:22:21.191Z,5.73
2022-08-20T22:24:47.632Z,5.35
2022-08-20T22:27:24.985Z,8.43
2022-08-20T22:29:56.115Z,4.38
2022-08-20T22:32:22.601Z,6.50
2022-08-20T22:35:00.954Z,4.67
2022-08-20T22:37:31.233Z,6.43
2022-08-20T22:40:06.425Z,5.38
2022-08-20T22:42:39.855Z,4.43
2022-08-20T22:45:13.468Z,6.65
2022-08-20T22:47:49.456Z,4.13
2022-08-20T22:50:25.192Z,6.75
2022-08-20T22:53:21.901Z,5.00
2022-08-20T22:55:49.243Z,6.07
2022-08-20T22:58:30.409Z,5.50
2022-08-20T23:00:59.611Z,6.77
2022-08-20T23:03:59.976Z,5.10
2022-08-20T23:06:29.981Z,6.07
2022-08-20T23:08:56.420Z,7.88
2022-08-20T23:11:26.213Z,7.32
2022-08-20T23:13:57.076Z,8.33
2022-08-20T23:16:40.253Z,7.78
2022-08-20T23:19:21.545Z,6.45
2022-08-20T23:21:49.760Z,4.30
2022-08-20T23:24:52.199Z,6.72
2022-08-20T23:27:20.447Z,5.50
2022-08-20T23:29:47.495Z,4.88
2022-08-20T23:32:14.104Z,7.97
2022-08-20T23:34:54.745Z,6.20
2022-08-20T23:37:48.625Z,6.30
2022-08-20T23:40:17.364Z,7.17
2022-08-20T23:42:47.061Z,4.25
2022-08-20T23:45:14.156Z,5.18
2022-08-20T23:47:40.544Z,5.18
2022-08-20T23:50:11.493Z,6.18
2022-08-20T23:52:42.101Z,6.60
2022-08-20T23:55:09.947Z,5.78
2022-08-20T23:57:55.705Z,4.88
